Avalon — PBSF — position and weather

sailwx.info

Track history (hours):
 
Tides and Currents Weather Stations Pressure Air Temp Water Temp Dewpoint Dewpoint Depression Visibility Wind Speed Wind Dir Waves Ship Positions

Avalon

Last reported at 2018-Jan-12 03:07 UTC. Time now 2018-Jan-18 07:50 UTC.
Position N 59°24' E 023°22'.

Length 89 m; draft 5.2 m.

Type: Cargo ship. MMSI: 246578000.

Date/timePositionNaut miles runAvg speedWind from/ knotsBaromVisibWave heightAir tempDewpointWater temp
2018-Jan-12 03:07N 59°24' E 023°22'4 9.8
2018-Jan-12 02:40N 59°26' E 023°30'5 9.7
2018-Jan-12 02:11N 59°28' E 023°39'2 9.6
2018-Jan-12 02:00N 59°29' E 023°42'6 9.8
2018-Jan-12 01:23N 59°31' E 023°52'410.0
2018-Jan-12 00:59N 59°33' E 023°59'510.0
2018-Jan-12 00:29N 59°35' E 024°08'510.1
2018-Jan-12 00:00N 59°37' E 024°17'510.2
2018-Jan-11 23:30N 59°39' E 024°26'510.1
2018-Jan-11 23:00N 59°41' E 024°35'5 9.5
2018-Jan-11 22:31N 59°43' E 024°43'5 9.9
2018-Jan-11 22:01N 59°44' E 024°53'510.1
2018-Jan-11 21:30N 59°44' E 025°03'5 9.8
2018-Jan-11 21:00N 59°44' E 025°13'30 9.9
2018-Jan-11 17:57N 59°38' E 026°12'5 9.9
2018-Jan-11 17:28N 59°37' E 026°21'4 8.6
2018-Jan-11 17:00N 59°35' E 026°28'4 7.9
2018-Jan-11 16:28N 59°32' E 026°33'0 0.0
2018-Jan-11 15:38N 59°32' E 026°33'0 0.0
2018-Jan-11 15:05N 59°32' E 026°33'0 0.0
2018-Jan-11 14:56N 59°32' E 026°33'0 0.0
2018-Jan-11 14:29N 59°32' E 026°33'0 0.0
2018-Jan-11 13:56N 59°32' E 026°33'0 0.0
2018-Jan-11 13:15N 59°32' E 026°33'0 0.0
2018-Jan-11 13:00N 59°32' E 026°33'0 0.0
2018-Jan-11 12:29N 59°32' E 026°33'0 0.0
2018-Jan-11 12:00N 59°32' E 026°33'0 0.0
2018-Jan-11 11:30N 59°32' E 026°33'0 0.0
2018-Jan-11 11:00N 59°32' E 026°33'0 0.0
2018-Jan-11 10:26N 59°32' E 026°33'0 0.0
2018-Jan-11 09:56N 59°32' E 026°33'0 0.0
2018-Jan-11 09:26N 59°32' E 026°33'0 0.0
2018-Jan-11 08:59N 59°32' E 026°33'0 0.0
2018-Jan-11 08:29N 59°32' E 026°33'0 0.0
2018-Jan-11 07:56N 59°32' E 026°33'0 0.0
2018-Jan-11 07:08N 59°32' E 026°33'0 0.0
2018-Jan-11 06:53N 59°32' E 026°33'0 0.0
2018-Jan-11 06:20N 59°32' E 026°33'0 0.0
2018-Jan-11 04:47N 59°32' E 026°33'0 0.0
2018-Jan-11 04:17N 59°32' E 026°33'0 0.0
2018-Jan-11 03:59N 59°32' E 026°33'0 0.0
2018-Jan-11 01:23N 59°32' E 026°33'0 0.0
2018-Jan-11 00:53N 59°32' E 026°33'0 0.0
2018-Jan-11 00:16N 59°32' E 026°33'0 0.0
2018-Jan-10 23:56N 59°32' E 026°33'0 0.0
2018-Jan-10 23:21N 59°32' E 026°33'0 0.0
2018-Jan-10 22:54N 59°32' E 026°33'0 0.0
2018-Jan-10 17:35N 59°32' E 026°33'0 0.7
2018-Jan-10 17:24N 59°32' E 026°33'3 5.5
2018-Jan-10 16:54N 59°34' E 026°31'510.8
2018-Jan-10 16:28N 59°39' E 026°28'3510.7
2018-Jan-10 13:10N 59°45' E 025°19'211.5
2018-Jan-10 13:01N 59°45' E 025°16'611.3
2018-Jan-10 12:31N 59°45' E 025°04'611.3
2018-Jan-10 12:00N 59°45' E 024°53'611.4
2018-Jan-10 11:31N 59°44' E 024°42'611.4
2018-Jan-10 11:01N 59°43' E 024°31'611.3
2018-Jan-10 10:31N 59°42' E 024°20'911.3
2018-Jan-10 09:43N 59°39' E 024°03'311.4
2018-Jan-10 09:29N 59°38' E 023°58'611.4
2018-Jan-10 09:00N 59°37' E 023°48'611.2
2018-Jan-10 08:30N 59°35' E 023°37'611.2
2018-Jan-10 08:01N 59°33' E 023°27'611.3
2018-Jan-10 07:31N 59°31' E 023°17'611.6
2018-Jan-10 07:01N 59°29' E 023°06'611.5
2018-Jan-10 06:30N 59°27' E 022°55'1911.2
2018-Jan-10 04:51N 59°19' E 022°22'911.1
2018-Jan-10 04:05N 59°15' E 022°08'111.1
2018-Jan-10 04:00N 59°14' E 022°07'611.1
2018-Jan-10 03:31N 59°11' E 021°58'611.1
2018-Jan-10 03:01N 59°08' E 021°49'711.1
2018-Jan-10 02:21N 59°03' E 021°39'410.8
2018-Jan-10 01:59N 59°01' E 021°33'2211.3
2018-Jan-10 00:03N 58°56' E 020°51'111.4
2018-Jan-09 23:56N 58°56' E 020°49'511.4
2018-Jan-09 23:31N 58°55' E 020°39'611.2
2018-Jan-09 23:00N 58°54' E 020°29'611.2
2018-Jan-09 22:31N 58°53' E 020°18'611.2
2018-Jan-09 22:00N 58°51' E 020°07'611.2
2018-Jan-09 21:31N 58°50' E 019°57'611.3
2018-Jan-09 21:01N 58°49' E 019°46'611.1
2018-Jan-09 20:31N 58°48' E 019°36'611.2
2018-Jan-09 19:59N 58°47' E 019°25'611.3
2018-Jan-09 19:29N 58°46' E 019°14'611.3
2018-Jan-09 19:00N 58°44' E 019°03'611.4
2018-Jan-09 18:31N 58°43' E 018°53'611.3
2018-Jan-09 18:01N 58°42' E 018°42'611.1
2018-Jan-09 17:31N 58°41' E 018°32'611.2
2018-Jan-09 17:01N 58°40' E 018°21'611.4
2018-Jan-09 16:31N 58°39' E 018°11'611.4
2018-Jan-09 16:01N 58°38' E 017°60'611.3
2018-Jan-09 15:30N 58°37' E 017°49'611.4
2018-Jan-09 15:00N 58°37' E 017°38'611.6
2018-Jan-09 14:30N 58°37' E 017°27'611.6
2018-Jan-09 14:01N 58°37' E 017°16'611.2
2018-Jan-09 13:31N 58°37' E 017°05'611.4
2018-Jan-09 13:01N 58°36' E 016°55'611.7
2018-Jan-09 12:31N 58°37' E 016°44'611.5
2018-Jan-09 12:00N 58°39' E 016°33'611.5
2018-Jan-09 11:31N 58°38' E 016°22'4 7.1
2018-Jan-09 10:59N 58°37' E 016°15'0 0.0
2018-Jan-09 10:29N 58°37' E 016°15'0 0.0
2018-Jan-09 09:59N 58°37' E 016°15'0 0.0
2018-Jan-09 09:29N 58°37' E 016°15'0 0.0
2018-Jan-09 08:59N 58°37' E 016°15'0 0.0
2018-Jan-09 08:29N 58°37' E 016°15'0 0.0
2018-Jan-09 07:59N 58°37' E 016°15'0 0.0
2018-Jan-09 07:29N 58°37' E 016°15'0 0.0
2018-Jan-09 06:59N 58°37' E 016°15'0 0.0
2018-Jan-09 06:29N 58°37' E 016°15'0 0.0
2018-Jan-09 05:56N 58°37' E 016°15'0 0.0
2018-Jan-09 05:29N 58°37' E 016°15'0 0.0
2018-Jan-09 04:59N 58°37' E 016°15'0 0.0
2018-Jan-09 04:29N 58°37' E 016°15'0 0.0
2018-Jan-09 03:59N 58°37' E 016°15'0 0.0
2018-Jan-09 03:29N 58°37' E 016°15'0 0.0
2018-Jan-09 02:59N 58°37' E 016°15'0 0.0
2018-Jan-09 02:29N 58°37' E 016°15'0 0.0
2018-Jan-09 01:59N 58°37' E 016°15'0 0.0
2018-Jan-09 01:29N 58°37' E 016°15'0 0.0
2018-Jan-09 00:59N 58°37' E 016°15'0 0.0
2018-Jan-09 00:29N 58°37' E 016°15'0 0.0
2018-Jan-08 23:59N 58°37' E 016°15'0 0.0
2018-Jan-08 23:29N 58°37' E 016°15'0 0.0
2018-Jan-08 22:59N 58°37' E 016°15'0 0.0
2018-Jan-08 22:29N 58°37' E 016°15'0 0.0
2018-Jan-08 21:59N 58°37' E 016°15'0 0.0
2018-Jan-08 21:29N 58°37' E 016°15'0 0.0
2018-Jan-08 20:59N 58°37' E 016°15'0 0.0
2018-Jan-08 20:29N 58°37' E 016°15'0 0.0
2018-Jan-08 19:59N 58°37' E 016°15'0 0.0
2018-Jan-08 19:29N 58°37' E 016°15'0 0.0
2018-Jan-08 18:59N 58°37' E 016°15'0 0.0
2018-Jan-08 18:29N 58°37' E 016°15'0 0.0
2018-Jan-08 17:59N 58°37' E 016°15'0 0.0
2018-Jan-08 17:29N 58°37' E 016°15'0 0.0
2018-Jan-08 16:59N 58°37' E 016°15'0 0.0
2018-Jan-08 16:29N 58°37' E 016°15'0 0.0
2018-Jan-08 15:59N 58°37' E 016°15'0 0.0
2018-Jan-08 15:29N 58°37' E 016°15'0 0.0
2018-Jan-08 14:59N 58°37' E 016°15'0 0.0
2018-Jan-08 14:29N 58°37' E 016°15'0 0.0
2018-Jan-08 13:59N 58°37' E 016°15'0 0.0
2018-Jan-08 13:29N 58°37' E 016°15'0 0.0
2018-Jan-08 12:59N 58°37' E 016°15'0 0.0
2018-Jan-08 12:29N 58°37' E 016°15'0 0.0
2018-Jan-08 11:59N 58°37' E 016°15'0 0.0
2018-Jan-08 11:29N 58°37' E 016°15'0 0.0
2018-Jan-08 10:59N 58°37' E 016°15'0 0.0
2018-Jan-08 10:29N 58°37' E 016°15'0 0.0
2018-Jan-08 09:59N 58°37' E 016°15'0 0.0
2018-Jan-08 09:29N 58°37' E 016°15'0 0.0
2018-Jan-08 08:59N 58°37' E 016°15'0 0.0
2018-Jan-08 08:29N 58°37' E 016°15'0 0.0
2018-Jan-08 07:59N 58°37' E 016°15'0 0.0
2018-Jan-08 07:29N 58°37' E 016°15'0 0.0
2018-Jan-08 06:59N 58°37' E 016°15'0 0.0
2018-Jan-08 06:29N 58°37' E 016°15'0 0.0
2018-Jan-08 05:59N 58°37' E 016°15'0 0.0
2018-Jan-08 05:29N 58°37' E 016°15'0 0.0
2018-Jan-08 04:59N 58°37' E 016°15'0 0.0
2018-Jan-08 04:29N 58°37' E 016°15'0 0.0
2018-Jan-08 03:59N 58°37' E 016°15'0 0.0
2018-Jan-08 03:29N 58°37' E 016°15'0 0.0
2018-Jan-08 02:59N 58°37' E 016°15'0 0.0
2018-Jan-08 02:29N 58°37' E 016°15'0 0.0
2018-Jan-08 01:59N 58°37' E 016°15'0 0.0
2018-Jan-08 01:29N 58°37' E 016°15'0 0.0
2018-Jan-08 00:59N 58°37' E 016°15'0 0.0
2018-Jan-08 00:29N 58°37' E 016°15'0 0.0
2018-Jan-07 23:59N 58°37' E 016°15'0 0.0
2018-Jan-07 23:29N 58°37' E 016°15'0 0.0
2018-Jan-07 22:59N 58°37' E 016°15'0 0.0
2018-Jan-07 22:29N 58°37' E 016°15'0 0.0
2018-Jan-07 21:59N 58°37' E 016°15'0 0.0
2018-Jan-07 21:29N 58°37' E 016°15'0 0.0
2018-Jan-07 20:59N 58°37' E 016°15'0 0.0
2018-Jan-07 20:29N 58°37' E 016°15'0 0.0
2018-Jan-07 19:59N 58°37' E 016°15'0 0.0
2018-Jan-07 19:29N 58°37' E 016°15'0 0.0
2018-Jan-07 18:59N 58°37' E 016°15'0 0.0
2018-Jan-07 18:29N 58°37' E 016°15'0 0.0
2018-Jan-07 17:59N 58°37' E 016°15'0 0.0
2018-Jan-07 17:29N 58°37' E 016°15'0 0.0
2018-Jan-07 16:59N 58°37' E 016°15'0 0.0
2018-Jan-07 16:29N 58°37' E 016°15'0 0.0
2018-Jan-07 15:59N 58°37' E 016°15'0 0.0
2018-Jan-07 15:29N 58°37' E 016°15'0 0.0
2018-Jan-07 14:59N 58°37' E 016°15'0 0.0
2018-Jan-07 14:29N 58°37' E 016°15'0 0.0
2018-Jan-07 13:59N 58°37' E 016°15'0 0.0
2018-Jan-07 13:29N 58°37' E 016°15'0 0.0
2018-Jan-07 12:59N 58°37' E 016°15'0 0.0
2018-Jan-07 12:29N 58°37' E 016°15'0 0.0
2018-Jan-07 11:59N 58°37' E 016°15'0 0.0
2018-Jan-07 11:29N 58°37' E 016°15'0 0.0
2018-Jan-07 10:59N 58°37' E 016°15'0 0.0
2018-Jan-07 10:29N 58°37' E 016°15'0 0.0
2018-Jan-07 09:59N 58°37' E 016°15'0 0.0
2018-Jan-07 09:29N 58°37' E 016°15'0 0.0
2018-Jan-07 08:59N 58°37' E 016°15'0 0.0
2018-Jan-07 08:29N 58°37' E 016°15'0 0.0
2018-Jan-07 07:59N 58°37' E 016°15'0 0.0
2018-Jan-07 07:29N 58°37' E 016°15'0 0.0
2018-Jan-07 06:59N 58°37' E 016°15'0 0.0
2018-Jan-07 06:29N 58°37' E 016°15'0 0.0
2018-Jan-07 05:59N 58°37' E 016°15'0 0.0
2018-Jan-07 05:29N 58°37' E 016°15'0 0.0
2018-Jan-07 04:59N 58°37' E 016°15'0 0.0
2018-Jan-07 04:29N 58°37' E 016°15'0 0.0
2018-Jan-07 03:59N 58°37' E 016°15'0 0.0
2018-Jan-07 03:29N 58°37' E 016°15'0 0.0
2018-Jan-07 03:00N 58°37' E 016°15'2 3.6
2018-Jan-07 02:30N 58°38' E 016°18'510.1
2018-Jan-07 02:00N 58°39' E 016°27'510.0
2018-Jan-07 01:30N 58°38' E 016°37'1010.1
2018-Jan-07 00:30N 58°36' E 016°56'510.4
2018-Jan-07 00:00N 58°38' E 017°05'510.0
2018-Jan-06 23:30N 58°37' E 017°15'510.3
2018-Jan-06 23:00N 58°38' E 017°25'4 9.0
2018-Jan-06 22:30N 58°33' E 017°25'5 9.7
2018-Jan-06 22:00N 58°28' E 017°25'6 9.2
2018-Jan-06 21:22N 58°22' E 017°24'141 9.4
2018-Jan-06 06:19N 56°03' E 016°42'310.0
2018-Jan-06 05:59N 56°01' E 016°37'5 9.9
2018-Jan-06 05:30N 55°59' E 016°30'5 9.7
2018-Jan-06 05:00N 55°56' E 016°22'5 9.7
2018-Jan-06 04:30N 55°54' E 016°15'510.1
2018-Jan-06 04:00N 55°51' E 016°07'510.1
2018-Jan-06 03:30N 55°49' E 015°59'510.0
2018-Jan-06 03:00N 55°46' E 015°52'510.1
2018-Jan-06 02:30N 55°44' E 015°44'510.2
2018-Jan-06 02:00N 55°41' E 015°36'510.0
2018-Jan-06 01:30N 55°39' E 015°29'5 9.9
2018-Jan-06 01:00N 55°36' E 015°21'510.0
2018-Jan-06 00:30N 55°34' E 015°13'510.3
2018-Jan-05 23:59N 55°31' E 015°05'510.3
2018-Jan-05 23:28N 55°28' E 014°57'510.3
2018-Jan-05 23:00N 55°26' E 014°49'510.2
2018-Jan-05 22:31N 55°24' E 014°42'510.0
2018-Jan-05 22:00N 55°20' E 014°35'5 9.8
2018-Jan-05 21:30N 55°17' E 014°29'5 9.8
2018-Jan-05 21:00N 55°13' E 014°23'5 9.1
2018-Jan-05 20:30N 55°11' E 014°16'5 9.9
2018-Jan-05 20:00N 55°11' E 014°07'16 9.8
2018-Jan-05 18:21N 55°12' E 013°39'8 9.9
2018-Jan-05 17:31N 55°13' E 013°24'210.1
2018-Jan-05 17:22N 55°13' E 013°22'410.3
2018-Jan-05 16:59N 55°14' E 013°15'510.3
2018-Jan-05 16:30N 55°14' E 013°06'510.2
2018-Jan-05 16:00N 55°15' E 012°57'5 9.9
2018-Jan-05 15:30N 55°16' E 012°49'510.3
2018-Jan-05 15:00N 55°18' E 012°41'5 9.6
2018-Jan-05 14:30N 55°22' E 012°39'510.5
2018-Jan-05 14:00N 55°28' E 012°40'510.3
2018-Jan-05 13:30N 55°33' E 012°42'5 9.9
2018-Jan-05 13:00N 55°38' E 012°42'5 9.6
2018-Jan-05 12:30N 55°42' E 012°41'5 9.6
2018-Jan-05 12:00N 55°47' E 012°41'5 9.6
2018-Jan-05 11:30N 55°52' E 012°39'5 9.7
2018-Jan-05 11:00N 55°57' E 012°38'5 9.9
2018-Jan-05 10:30N 56°02' E 012°38'4 8.0
2018-Jan-05 10:00N 56°05' E 012°35'4 8.5
2018-Jan-05 09:30N 56°08' E 012°28'510.3
2018-Jan-05 09:00N 56°11' E 012°21'510.5
2018-Jan-05 08:30N 56°14' E 012°13'3110.1
2018-Jan-05 05:28N 56°42' E 011°53'610.1
2018-Jan-05 04:53N 56°48' E 011°50'4 9.8
2018-Jan-05 04:29N 56°52' E 011°48'5 9.6
2018-Jan-05 04:00N 56°56' E 011°45'5 9.4
2018-Jan-05 03:30N 57°00' E 011°42'5 9.4
2018-Jan-05 03:00N 57°05' E 011°39'5 9.6
2018-Jan-05 02:30N 57°09' E 011°36'5 9.8
2018-Jan-05 02:00N 57°14' E 011°33'510.0
2018-Jan-05 01:30N 57°19' E 011°30'5 9.8
2018-Jan-05 01:00N 57°23' E 011°27'5 9.2
2018-Jan-05 00:30N 57°28' E 011°24'5 9.5
2018-Jan-05 00:00N 57°31' E 011°17'5 9.7
2018-Jan-04 23:31N 57°34' E 011°11'5 9.9
2018-Jan-04 23:00N 57°37' E 011°04'510.0
2018-Jan-04 22:30N 57°41' E 010°57'510.2
2018-Jan-04 22:00N 57°44' E 010°50'510.0
2018-Jan-04 21:30N 57°47' E 010°42'510.3
2018-Jan-04 21:00N 57°47' E 010°33'610.4
2018-Jan-04 20:29N 57°47' E 010°23'416 8.4
2018-Jan-02 18:39N 58°37' W 002°42'1 8.6
2018-Jan-02 18:30N 58°38' W 002°44'4 8.6
2018-Jan-02 18:00N 58°39' W 002°52'3 6.9
2018-Jan-02 17:30N 58°40' W 002°58'3 6.4
2018-Jan-02 17:00N 58°42' W 003°03'3 5.5
2018-Jan-02 16:30N 58°43' W 003°08'3 3.1
2018-Jan-02 15:37N 58°43' W 003°13'1 6.8
2018-Jan-02 15:28N 58°43' W 003°15'2 4.3
2018-Jan-02 15:00N 58°43' W 003°19'62 8.7
2018-Jan-02 07:57N 58°31' W 005°15'  
Track history (hours):
 
Tides and Currents Weather Stations Pressure Air Temp Water Temp Dewpoint Dewpoint Depression Visibility Wind Speed Wind Dir Waves Ship Positions

Avalon

Last reported at 2018-Jan-12 03:07 UTC. Time now 2018-Jan-18 07:50 UTC.
Position N 59°24' E 023°22'.

Length 89 m; draft 5.2 m.

Type: Cargo ship. MMSI: 246578000.

Date/timePositionNaut miles runAvg speedWind from/ knotsBaromVisibWave heightAir tempDewpointWater temp
2018-Jan-12 03:07N 59°24' E 023°22'4 9.8
2018-Jan-12 02:40N 59°26' E 023°30'5 9.7
2018-Jan-12 02:11N 59°28' E 023°39'2 9.6
2018-Jan-12 02:00N 59°29' E 023°42'6 9.8
2018-Jan-12 01:23N 59°31' E 023°52'410.0
2018-Jan-12 00:59N 59°33' E 023°59'510.0
2018-Jan-12 00:29N 59°35' E 024°08'510.1
2018-Jan-12 00:00N 59°37' E 024°17'510.2
2018-Jan-11 23:30N 59°39' E 024°26'510.1
2018-Jan-11 23:00N 59°41' E 024°35'5 9.5
2018-Jan-11 22:31N 59°43' E 024°43'5 9.9
2018-Jan-11 22:01N 59°44' E 024°53'510.1
2018-Jan-11 21:30N 59°44' E 025°03'5 9.8
2018-Jan-11 21:00N 59°44' E 025°13'30 9.9
2018-Jan-11 17:57N 59°38' E 026°12'5 9.9
2018-Jan-11 17:28N 59°37' E 026°21'4 8.6
2018-Jan-11 17:00N 59°35' E 026°28'4 7.9
2018-Jan-11 16:28N 59°32' E 026°33'0 0.0
2018-Jan-11 15:38N 59°32' E 026°33'0 0.0
2018-Jan-11 15:05N 59°32' E 026°33'0 0.0
2018-Jan-11 14:56N 59°32' E 026°33'0 0.0
2018-Jan-11 14:29N 59°32' E 026°33'0 0.0
2018-Jan-11 13:56N 59°32' E 026°33'0 0.0
2018-Jan-11 13:15N 59°32' E 026°33'0 0.0
2018-Jan-11 13:00N 59°32' E 026°33'0 0.0
2018-Jan-11 12:29N 59°32' E 026°33'0 0.0
2018-Jan-11 12:00N 59°32' E 026°33'0 0.0
2018-Jan-11 11:30N 59°32' E 026°33'0 0.0
2018-Jan-11 11:00N 59°32' E 026°33'0 0.0
2018-Jan-11 10:26N 59°32' E 026°33'0 0.0
2018-Jan-11 09:56N 59°32' E 026°33'0 0.0
2018-Jan-11 09:26N 59°32' E 026°33'0 0.0
2018-Jan-11 08:59N 59°32' E 026°33'0 0.0
2018-Jan-11 08:29N 59°32' E 026°33'0 0.0
2018-Jan-11 07:56N 59°32' E 026°33'0 0.0
2018-Jan-11 07:08N 59°32' E 026°33'0 0.0
2018-Jan-11 06:53N 59°32' E 026°33'0 0.0
2018-Jan-11 06:20N 59°32' E 026°33'0 0.0
2018-Jan-11 04:47N 59°32' E 026°33'0 0.0
2018-Jan-11 04:17N 59°32' E 026°33'0 0.0
2018-Jan-11 03:59N 59°32' E 026°33'0 0.0
2018-Jan-11 01:23N 59°32' E 026°33'0 0.0
2018-Jan-11 00:53N 59°32' E 026°33'0 0.0
2018-Jan-11 00:16N 59°32' E 026°33'0 0.0
2018-Jan-10 23:56N 59°32' E 026°33'0 0.0
2018-Jan-10 23:21N 59°32' E 026°33'0 0.0
2018-Jan-10 22:54N 59°32' E 026°33'0 0.0
2018-Jan-10 17:35N 59°32' E 026°33'0 0.7
2018-Jan-10 17:24N 59°32' E 026°33'3 5.5
2018-Jan-10 16:54N 59°34' E 026°31'510.8
2018-Jan-10 16:28N 59°39' E 026°28'3510.7
2018-Jan-10 13:10N 59°45' E 025°19'211.5
2018-Jan-10 13:01N 59°45' E 025°16'611.3
2018-Jan-10 12:31N 59°45' E 025°04'611.3
2018-Jan-10 12:00N 59°45' E 024°53'611.4
2018-Jan-10 11:31N 59°44' E 024°42'611.4
2018-Jan-10 11:01N 59°43' E 024°31'611.3
2018-Jan-10 10:31N 59°42' E 024°20'911.3
2018-Jan-10 09:43N 59°39' E 024°03'311.4
2018-Jan-10 09:29N 59°38' E 023°58'611.4
2018-Jan-10 09:00N 59°37' E 023°48'611.2
2018-Jan-10 08:30N 59°35' E 023°37'611.2
2018-Jan-10 08:01N 59°33' E 023°27'611.3
2018-Jan-10 07:31N 59°31' E 023°17'611.6
2018-Jan-10 07:01N 59°29' E 023°06'611.5
2018-Jan-10 06:30N 59°27' E 022°55'1911.2
2018-Jan-10 04:51N 59°19' E 022°22'911.1
2018-Jan-10 04:05N 59°15' E 022°08'111.1
2018-Jan-10 04:00N 59°14' E 022°07'611.1
2018-Jan-10 03:31N 59°11' E 021°58'611.1
2018-Jan-10 03:01N 59°08' E 021°49'711.1
2018-Jan-10 02:21N 59°03' E 021°39'410.8
2018-Jan-10 01:59N 59°01' E 021°33'2211.3
2018-Jan-10 00:03N 58°56' E 020°51'111.4
2018-Jan-09 23:56N 58°56' E 020°49'511.4
2018-Jan-09 23:31N 58°55' E 020°39'611.2
2018-Jan-09 23:00N 58°54' E 020°29'611.2
2018-Jan-09 22:31N 58°53' E 020°18'611.2
2018-Jan-09 22:00N 58°51' E 020°07'611.2
2018-Jan-09 21:31N 58°50' E 019°57'611.3
2018-Jan-09 21:01N 58°49' E 019°46'611.1
2018-Jan-09 20:31N 58°48' E 019°36'611.2
2018-Jan-09 19:59N 58°47' E 019°25'611.3
2018-Jan-09 19:29N 58°46' E 019°14'611.3
2018-Jan-09 19:00N 58°44' E 019°03'611.4
2018-Jan-09 18:31N 58°43' E 018°53'611.3
2018-Jan-09 18:01N 58°42' E 018°42'611.1
2018-Jan-09 17:31N 58°41' E 018°32'611.2
2018-Jan-09 17:01N 58°40' E 018°21'611.4
2018-Jan-09 16:31N 58°39' E 018°11'611.4
2018-Jan-09 16:01N 58°38' E 017°60'611.3
2018-Jan-09 15:30N 58°37' E 017°49'611.4
2018-Jan-09 15:00N 58°37' E 017°38'611.6
2018-Jan-09 14:30N 58°37' E 017°27'611.6
2018-Jan-09 14:01N 58°37' E 017°16'611.2
2018-Jan-09 13:31N 58°37' E 017°05'611.4
2018-Jan-09 13:01N 58°36' E 016°55'611.7
2018-Jan-09 12:31N 58°37' E 016°44'611.5
2018-Jan-09 12:00N 58°39' E 016°33'611.5
2018-Jan-09 11:31N 58°38' E 016°22'4 7.1
2018-Jan-09 10:59N 58°37' E 016°15'0 0.0
2018-Jan-09 10:29N 58°37' E 016°15'0 0.0
2018-Jan-09 09:59N 58°37' E 016°15'0 0.0
2018-Jan-09 09:29N 58°37' E 016°15'0 0.0
2018-Jan-09 08:59N 58°37' E 016°15'0 0.0
2018-Jan-09 08:29N 58°37' E 016°15'0 0.0
2018-Jan-09 07:59N 58°37' E 016°15'0 0.0
2018-Jan-09 07:29N 58°37' E 016°15'0 0.0
2018-Jan-09 06:59N 58°37' E 016°15'0 0.0
2018-Jan-09 06:29N 58°37' E 016°15'0 0.0
2018-Jan-09 05:56N 58°37' E 016°15'0 0.0
2018-Jan-09 05:29N 58°37' E 016°15'0 0.0
2018-Jan-09 04:59N 58°37' E 016°15'0 0.0
2018-Jan-09 04:29N 58°37' E 016°15'0 0.0
2018-Jan-09 03:59N 58°37' E 016°15'0 0.0
2018-Jan-09 03:29N 58°37' E 016°15'0 0.0
2018-Jan-09 02:59N 58°37' E 016°15'0 0.0
2018-Jan-09 02:29N 58°37' E 016°15'0 0.0
2018-Jan-09 01:59N 58°37' E 016°15'0 0.0
2018-Jan-09 01:29N 58°37' E 016°15'0 0.0
2018-Jan-09 00:59N 58°37' E 016°15'0 0.0
2018-Jan-09 00:29N 58°37' E 016°15'0 0.0
2018-Jan-08 23:59N 58°37' E 016°15'0 0.0
2018-Jan-08 23:29N 58°37' E 016°15'0 0.0
2018-Jan-08 22:59N 58°37' E 016°15'0 0.0
2018-Jan-08 22:29N 58°37' E 016°15'0 0.0
2018-Jan-08 21:59N 58°37' E 016°15'0 0.0
2018-Jan-08 21:29N 58°37' E 016°15'0 0.0
2018-Jan-08 20:59N 58°37' E 016°15'0 0.0
2018-Jan-08 20:29N 58°37' E 016°15'0 0.0
2018-Jan-08 19:59N 58°37' E 016°15'0 0.0
2018-Jan-08 19:29N 58°37' E 016°15'0 0.0
2018-Jan-08 18:59N 58°37' E 016°15'0 0.0
2018-Jan-08 18:29N 58°37' E 016°15'0 0.0
2018-Jan-08 17:59N 58°37' E 016°15'0 0.0
2018-Jan-08 17:29N 58°37' E 016°15'0 0.0
2018-Jan-08 16:59N 58°37' E 016°15'0 0.0
2018-Jan-08 16:29N 58°37' E 016°15'0 0.0
2018-Jan-08 15:59N 58°37' E 016°15'0 0.0
2018-Jan-08 15:29N 58°37' E 016°15'0 0.0
2018-Jan-08 14:59N 58°37' E 016°15'0 0.0
2018-Jan-08 14:29N 58°37' E 016°15'0 0.0
2018-Jan-08 13:59N 58°37' E 016°15'0 0.0
2018-Jan-08 13:29N 58°37' E 016°15'0 0.0
2018-Jan-08 12:59N 58°37' E 016°15'0 0.0
2018-Jan-08 12:29N 58°37' E 016°15'0 0.0
2018-Jan-08 11:59N 58°37' E 016°15'0 0.0
2018-Jan-08 11:29N 58°37' E 016°15'0 0.0
2018-Jan-08 10:59N 58°37' E 016°15'0 0.0
2018-Jan-08 10:29N 58°37' E 016°15'0 0.0
2018-Jan-08 09:59N 58°37' E 016°15'0 0.0
2018-Jan-08 09:29N 58°37' E 016°15'0 0.0
2018-Jan-08 08:59N 58°37' E 016°15'0 0.0
2018-Jan-08 08:29N 58°37' E 016°15'0 0.0
2018-Jan-08 07:59N 58°37' E 016°15'0 0.0
2018-Jan-08 07:29N 58°37' E 016°15'0 0.0
2018-Jan-08 06:59N 58°37' E 016°15'0 0.0
2018-Jan-08 06:29N 58°37' E 016°15'0 0.0
2018-Jan-08 05:59N 58°37' E 016°15'0 0.0
2018-Jan-08 05:29N 58°37' E 016°15'0 0.0
2018-Jan-08 04:59N 58°37' E 016°15'0 0.0
2018-Jan-08 04:29N 58°37' E 016°15'0 0.0
2018-Jan-08 03:59N 58°37' E 016°15'0 0.0
2018-Jan-08 03:29N 58°37' E 016°15'0 0.0
2018-Jan-08 02:59N 58°37' E 016°15'0 0.0
2018-Jan-08 02:29N 58°37' E 016°15'0 0.0
2018-Jan-08 01:59N 58°37' E 016°15'0 0.0
2018-Jan-08 01:29N 58°37' E 016°15'0 0.0
2018-Jan-08 00:59N 58°37' E 016°15'0 0.0
2018-Jan-08 00:29N 58°37' E 016°15'0 0.0
2018-Jan-07 23:59N 58°37' E 016°15'0 0.0
2018-Jan-07 23:29N 58°37' E 016°15'0 0.0
2018-Jan-07 22:59N 58°37' E 016°15'0 0.0
2018-Jan-07 22:29N 58°37' E 016°15'0 0.0
2018-Jan-07 21:59N 58°37' E 016°15'0 0.0
2018-Jan-07 21:29N 58°37' E 016°15'0 0.0
2018-Jan-07 20:59N 58°37' E 016°15'0 0.0
2018-Jan-07 20:29N 58°37' E 016°15'0 0.0
2018-Jan-07 19:59N 58°37' E 016°15'0 0.0
2018-Jan-07 19:29N 58°37' E 016°15'0 0.0
2018-Jan-07 18:59N 58°37' E 016°15'0 0.0
2018-Jan-07 18:29N 58°37' E 016°15'0 0.0
2018-Jan-07 17:59N 58°37' E 016°15'0 0.0
2018-Jan-07 17:29N 58°37' E 016°15'0 0.0
2018-Jan-07 16:59N 58°37' E 016°15'0 0.0
2018-Jan-07 16:29N 58°37' E 016°15'0 0.0
2018-Jan-07 15:59N 58°37' E 016°15'0 0.0
2018-Jan-07 15:29N 58°37' E 016°15'0 0.0
2018-Jan-07 14:59N 58°37' E 016°15'0 0.0
2018-Jan-07 14:29N 58°37' E 016°15'0 0.0
2018-Jan-07 13:59N 58°37' E 016°15'0 0.0
2018-Jan-07 13:29N 58°37' E 016°15'0 0.0
2018-Jan-07 12:59N 58°37' E 016°15'0 0.0
2018-Jan-07 12:29N 58°37' E 016°15'0 0.0
2018-Jan-07 11:59N 58°37' E 016°15'0 0.0
2018-Jan-07 11:29N 58°37' E 016°15'0 0.0
2018-Jan-07 10:59N 58°37' E 016°15'0 0.0
2018-Jan-07 10:29N 58°37' E 016°15'0 0.0
2018-Jan-07 09:59N 58°37' E 016°15'0 0.0
2018-Jan-07 09:29N 58°37' E 016°15'0 0.0
2018-Jan-07 08:59N 58°37' E 016°15'0 0.0
2018-Jan-07 08:29N 58°37' E 016°15'0 0.0
2018-Jan-07 07:59N 58°37' E 016°15'0 0.0
2018-Jan-07 07:29N 58°37' E 016°15'0 0.0
2018-Jan-07 06:59N 58°37' E 016°15'0 0.0
2018-Jan-07 06:29N 58°37' E 016°15'0 0.0
2018-Jan-07 05:59N 58°37' E 016°15'0 0.0
2018-Jan-07 05:29N 58°37' E 016°15'0 0.0
2018-Jan-07 04:59N 58°37' E 016°15'0 0.0
2018-Jan-07 04:29N 58°37' E 016°15'0 0.0
2018-Jan-07 03:59N 58°37' E 016°15'0 0.0
2018-Jan-07 03:29N 58°37' E 016°15'0 0.0
2018-Jan-07 03:00N 58°37' E 016°15'2 3.6
2018-Jan-07 02:30N 58°38' E 016°18'510.1
2018-Jan-07 02:00N 58°39' E 016°27'510.0
2018-Jan-07 01:30N 58°38' E 016°37'1010.1
2018-Jan-07 00:30N 58°36' E 016°56'510.4
2018-Jan-07 00:00N 58°38' E 017°05'510.0
2018-Jan-06 23:30N 58°37' E 017°15'510.3
2018-Jan-06 23:00N 58°38' E 017°25'4 9.0
2018-Jan-06 22:30N 58°33' E 017°25'5 9.7
2018-Jan-06 22:00N 58°28' E 017°25'6 9.2
2018-Jan-06 21:22N 58°22' E 017°24'141 9.4
2018-Jan-06 06:19N 56°03' E 016°42'310.0
2018-Jan-06 05:59N 56°01' E 016°37'5 9.9
2018-Jan-06 05:30N 55°59' E 016°30'5 9.7
2018-Jan-06 05:00N 55°56' E 016°22'5 9.7
2018-Jan-06 04:30N 55°54' E 016°15'510.1
2018-Jan-06 04:00N 55°51' E 016°07'510.1
2018-Jan-06 03:30N 55°49' E 015°59'510.0
2018-Jan-06 03:00N 55°46' E 015°52'510.1
2018-Jan-06 02:30N 55°44' E 015°44'510.2
2018-Jan-06 02:00N 55°41' E 015°36'510.0
2018-Jan-06 01:30N 55°39' E 015°29'5 9.9
2018-Jan-06 01:00N 55°36' E 015°21'510.0
2018-Jan-06 00:30N 55°34' E 015°13'510.3
2018-Jan-05 23:59N 55°31' E 015°05'510.3
2018-Jan-05 23:28N 55°28' E 014°57'510.3
2018-Jan-05 23:00N 55°26' E 014°49'510.2
2018-Jan-05 22:31N 55°24' E 014°42'510.0
2018-Jan-05 22:00N 55°20' E 014°35'5 9.8
2018-Jan-05 21:30N 55°17' E 014°29'5 9.8
2018-Jan-05 21:00N 55°13' E 014°23'5 9.1
2018-Jan-05 20:30N 55°11' E 014°16'5 9.9
2018-Jan-05 20:00N 55°11' E 014°07'16 9.8
2018-Jan-05 18:21N 55°12' E 013°39'8 9.9
2018-Jan-05 17:31N 55°13' E 013°24'210.1
2018-Jan-05 17:22N 55°13' E 013°22'410.3
2018-Jan-05 16:59N 55°14' E 013°15'510.3
2018-Jan-05 16:30N 55°14' E 013°06'510.2
2018-Jan-05 16:00N 55°15' E 012°57'5 9.9
2018-Jan-05 15:30N 55°16' E 012°49'510.3
2018-Jan-05 15:00N 55°18' E 012°41'5 9.6
2018-Jan-05 14:30N 55°22' E 012°39'510.5
2018-Jan-05 14:00N 55°28' E 012°40'510.3
2018-Jan-05 13:30N 55°33' E 012°42'5 9.9
2018-Jan-05 13:00N 55°38' E 012°42'5 9.6
2018-Jan-05 12:30N 55°42' E 012°41'5 9.6
2018-Jan-05 12:00N 55°47' E 012°41'5 9.6
2018-Jan-05 11:30N 55°52' E 012°39'5 9.7
2018-Jan-05 11:00N 55°57' E 012°38'5 9.9
2018-Jan-05 10:30N 56°02' E 012°38'4 8.0
2018-Jan-05 10:00N 56°05' E 012°35'4 8.5
2018-Jan-05 09:30N 56°08' E 012°28'510.3
2018-Jan-05 09:00N 56°11' E 012°21'510.5
2018-Jan-05 08:30N 56°14' E 012°13'3110.1
2018-Jan-05 05:28N 56°42' E 011°53'610.1
2018-Jan-05 04:53N 56°48' E 011°50'4 9.8
2018-Jan-05 04:29N 56°52' E 011°48'5 9.6
2018-Jan-05 04:00N 56°56' E 011°45'5 9.4
2018-Jan-05 03:30N 57°00' E 011°42'5 9.4
2018-Jan-05 03:00N 57°05' E 011°39'5 9.6
2018-Jan-05 02:30N 57°09' E 011°36'5 9.8
2018-Jan-05 02:00N 57°14' E 011°33'510.0
2018-Jan-05 01:30N 57°19' E 011°30'5 9.8
2018-Jan-05 01:00N 57°23' E 011°27'5 9.2
2018-Jan-05 00:30N 57°28' E 011°24'5 9.5
2018-Jan-05 00:00N 57°31' E 011°17'5 9.7
2018-Jan-04 23:31N 57°34' E 011°11'5 9.9
2018-Jan-04 23:00N 57°37' E 011°04'510.0
2018-Jan-04 22:30N 57°41' E 010°57'510.2
2018-Jan-04 22:00N 57°44' E 010°50'510.0
2018-Jan-04 21:30N 57°47' E 010°42'510.3
2018-Jan-04 21:00N 57°47' E 010°33'610.4
2018-Jan-04 20:29N 57°47' E 010°23'416 8.4
2018-Jan-02 18:39N 58°37' W 002°42'1 8.6
2018-Jan-02 18:30N 58°38' W 002°44'4 8.6
2018-Jan-02 18:00N 58°39' W 002°52'3 6.9
2018-Jan-02 17:30N 58°40' W 002°58'3 6.4
2018-Jan-02 17:00N 58°42' W 003°03'3 5.5
2018-Jan-02 16:30N 58°43' W 003°08'3 3.1
2018-Jan-02 15:37N 58°43' W 003°13'1 6.8
2018-Jan-02 15:28N 58°43' W 003°15'2 4.3
2018-Jan-02 15:00N 58°43' W 003°19'62 8.7
2018-Jan-02 07:57N 58°31' W 005°15'  

Dump ship's entire track history